createdAt,value
2019-01-04T00:00:50.643Z,-5.40
2019-01-04T00:03:22.730Z,-5.60
2019-01-04T00:05:53.832Z,-5.80
2019-01-04T00:08:24.615Z,-5.70
2019-01-04T00:10:55.052Z,-5.40
2019-01-04T00:13:24.660Z,-5.40
2019-01-04T00:15:57.821Z,-5.50
2019-01-04T00:18:28.794Z,-5.60
2019-01-04T00:20:58.331Z,-5.70
2019-01-04T00:23:28.232Z,-5.90
2019-01-04T00:25:57.687Z,-6.00
2019-01-04T00:28:27.216Z,-6.10
2019-01-04T00:30:57.928Z,-6.00
2019-01-04T00:33:27.439Z,-6.30
2019-01-04T00:35:56.176Z,-6.60
2019-01-04T00:38:26.588Z,-6.80
2019-01-04T00:40:56.708Z,-6.80
2019-01-04T00:43:26.964Z,-6.60
2019-01-04T00:45:55.814Z,-6.40
2019-01-04T00:48:26.864Z,-6.00
2019-01-04T00:50:56.432Z,-5.70
2019-01-04T00:53:26.936Z,-5.60
2019-01-04T00:57:13.989Z,-5.30
2019-01-04T01:00:57.413Z,-5.50
2019-01-04T01:04:17.602Z,-6.00
2019-01-04T01:07:56.653Z,-5.80
2019-01-04T01:11:17.631Z,-5.50
2019-01-04T01:14:36.303Z,-5.60
2019-01-04T01:18:20.170Z,-5.70
2019-01-04T01:22:08.029Z,-5.80
2019-01-04T01:25:39.576Z,-5.70
2019-01-04T01:29:20.452Z,-5.10
2019-01-04T01:32:57.761Z,-4.80
2019-01-04T01:36:17.802Z,-5.50
2019-01-04T01:39:50.446Z,-5.90
2019-01-04T01:43:26.374Z,-6.30
2019-01-04T01:46:39.804Z,-6.50
2019-01-04T01:50:22.139Z,-6.50
2019-01-04T01:52:52.982Z,-6.60
2019-01-04T01:55:23.767Z,-6.60
2019-01-04T01:57:55.020Z,-6.60
2019-01-04T02:00:25.834Z,-6.60
2019-01-04T02:02:59.929Z,-6.60
2019-01-04T02:05:30.782Z,-6.60
2019-01-04T02:08:01.229Z,-6.50
2019-01-04T02:10:33.070Z,-6.50
2019-01-04T02:13:04.669Z,-6.60
2019-01-04T02:15:36.472Z,-6.60
2019-01-04T02:18:07.316Z,-6.70
2019-01-04T02:20:37.036Z,-6.70
2019-01-04T02:23:07.792Z,-6.60
2019-01-04T02:25:38.153Z,-6.70
2019-01-04T02:28:08.254Z,-6.70
2019-01-04T02:30:39.500Z,-6.80
2019-01-04T02:33:09.798Z,-6.80
2019-01-04T02:35:39.543Z,-7.00
2019-01-04T02:38:10.099Z,-7.10
2019-01-04T02:40:41.723Z,-7.20
2019-01-04T02:43:13.668Z,-7.20
2019-01-04T02:45:44.129Z,-7.10
2019-01-04T02:48:13.823Z,-6.80
2019-01-04T02:50:44.410Z,-6.70
2019-01-04T02:53:16.427Z,-6.40
2019-01-04T02:55:47.951Z,-6.20
2019-01-04T02:58:18.977Z,-6.20
2019-01-04T03:00:49.671Z,-6.20
2019-01-04T03:03:20.618Z,-6.00
2019-01-04T03:05:50.671Z,-5.70
2019-01-04T03:08:21.965Z,-5.70
2019-01-04T03:10:54.424Z,-5.70
2019-01-04T03:13:27.000Z,-6.00
2019-01-04T03:15:56.479Z,-6.10
2019-01-04T03:18:27.066Z,-6.50
2019-01-04T03:20:56.998Z,-6.70
2019-01-04T03:23:27.753Z,-6.80
2019-01-04T03:25:58.016Z,-6.80
2019-01-04T03:28:30.494Z,-6.80
2019-01-04T03:31:00.985Z,-6.90
2019-01-04T03:33:32.699Z,-7.00
2019-01-04T03:36:02.789Z,-6.50
2019-01-04T03:38:35.127Z,-6.00
2019-01-04T03:41:05.072Z,-5.80
2019-01-04T03:43:36.415Z,-6.30
2019-01-04T03:46:06.308Z,-6.60
2019-01-04T03:48:37.884Z,-6.90
2019-01-04T03:51:08.523Z,-7.10
2019-01-04T03:53:38.956Z,-7.10
2019-01-04T03:56:10.230Z,-7.20
2019-01-04T03:58:40.292Z,-7.30
2019-01-04T04:01:10.518Z,-7.30
2019-01-04T04:03:41.865Z,-7.40
2019-01-04T04:06:12.903Z,-7.40
2019-01-04T04:08:42.582Z,-7.40
2019-01-04T04:11:13.079Z,-7.30
2019-01-04T04:13:45.213Z,-7.20
2019-01-04T04:16:16.364Z,-7.10
2019-01-04T04:18:46.611Z,-7.20
2019-01-04T04:21:18.080Z,-7.20
2019-01-04T04:23:51.056Z,-7.30
2019-01-04T04:26:23.172Z,-7.30
2019-01-04T04:28:53.098Z,-7.30
2019-01-04T04:31:24.551Z,-7.20
2019-01-04T04:33:55.209Z,-7.20
2019-01-04T04:36:25.986Z,-7.20
2019-01-04T04:38:58.237Z,-7.20
2019-01-04T04:41:29.184Z,-7.30
2019-01-04T04:43:59.406Z,-7.20
2019-01-04T04:46:29.623Z,-6.90
2019-01-04T04:49:00.981Z,-6.50
2019-01-04T04:51:30.531Z,-6.30
2019-01-04T04:54:01.079Z,-6.50
2019-01-04T04:56:31.936Z,-6.70
2019-01-04T04:59:02.553Z,-6.80
2019-01-04T05:01:32.649Z,-6.90
2019-01-04T05:04:02.368Z,-6.90
2019-01-04T05:06:33.791Z,-7.00
2019-01-04T05:09:07.244Z,-7.20
2019-01-04T05:11:38.989Z,-6.90
2019-01-04T05:14:09.726Z,-6.90
2019-01-04T05:16:40.086Z,-6.80
2019-01-04T05:19:09.816Z,-6.70
2019-01-04T05:21:40.507Z,-6.80
2019-01-04T05:24:09.940Z,-6.70
2019-01-04T05:26:41.531Z,-6.70
2019-01-04T05:29:11.918Z,-6.70
2019-01-04T05:31:42.587Z,-6.60
2019-01-04T05:34:13.654Z,-6.80
2019-01-04T05:36:43.583Z,-7.00
2019-01-04T05:39:14.538Z,-7.20
2019-01-04T05:41:45.181Z,-7.20
2019-01-04T05:44:14.848Z,-7.10
2019-01-04T05:46:44.992Z,-7.20
2019-01-04T05:49:16.104Z,-7.20
2019-01-04T05:51:47.261Z,-7.30
2019-01-04T05:54:18.919Z,-7.30
2019-01-04T05:56:49.516Z,-7.30
2019-01-04T05:59:20.576Z,-7.30
2019-01-04T06:01:53.082Z,-7.30
2019-01-04T06:04:23.546Z,-7.00
2019-01-04T06:06:54.173Z,-6.70
2019-01-04T06:09:24.971Z,-6.70
2019-01-04T06:11:55.542Z,-6.80
2019-01-04T06:14:25.906Z,-6.90
2019-01-04T06:16:56.619Z,-7.10
2019-01-04T06:19:27.975Z,-7.20
2019-01-04T06:21:59.126Z,-7.30
2019-01-04T06:24:30.233Z,-7.30
2019-01-04T06:27:01.796Z,-7.30
2019-01-04T06:29:32.308Z,-7.30
2019-01-04T06:32:03.019Z,-7.40
2019-01-04T06:34:33.123Z,-7.60
2019-01-04T06:37:03.250Z,-7.50
2019-01-04T06:39:34.792Z,-7.40
2019-01-04T06:42:04.752Z,-7.50
2019-01-04T06:44:34.259Z,-7.50
2019-01-04T06:47:30.424Z,-7.40
2019-01-04T06:49:59.806Z,-7.40
2019-01-04T06:52:29.154Z,-7.20
2019-01-04T06:55:54.998Z,-7.10
2019-01-04T06:58:26.206Z,-7.10
2019-01-04T07:00:58.275Z,-7.20
2019-01-04T07:03:28.953Z,-7.20
2019-01-04T07:05:59.206Z,-7.20
2019-01-04T07:08:29.946Z,-7.00
2019-01-04T07:11:01.833Z,-6.70
2019-01-04T07:13:32.838Z,-6.40
2019-01-04T07:16:02.015Z,-6.10
2019-01-04T07:18:32.713Z,-5.70
2019-01-04T07:21:02.719Z,-5.50
2019-01-04T07:23:32.921Z,-5.20
2019-01-04T07:26:03.666Z,-5.00
2019-01-04T07:28:33.004Z,-4.80
2019-01-04T07:31:03.630Z,-4.80
2019-01-04T07:33:36.726Z,-4.70
2019-01-04T07:36:09.025Z,-4.60
2019-01-04T07:38:39.065Z,-4.30
2019-01-04T07:41:09.886Z,-4.10
2019-01-04T07:43:57.379Z,-3.90
2019-01-04T07:46:28.413Z,-3.70
2019-01-04T07:48:59.499Z,-3.70
2019-01-04T07:51:31.657Z,-3.50
2019-01-04T07:54:02.486Z,-3.30
2019-01-04T07:56:34.143Z,-2.70
2019-01-04T07:59:04.786Z,-2.50
2019-01-04T08:01:35.518Z,-2.50
2019-01-04T08:04:04.877Z,-2.40
2019-01-04T08:06:36.356Z,-2.40
2019-01-04T08:09:08.530Z,-1.90
2019-01-04T08:11:38.671Z,-1.60
2019-01-04T08:14:09.520Z,-1.20
2019-01-04T08:16:40.151Z,-0.80
2019-01-04T08:19:10.964Z,-0.70
2019-01-04T08:21:40.821Z,-0.90
2019-01-04T08:24:11.586Z,-0.60
2019-01-04T08:26:42.025Z,-0.40
2019-01-04T08:29:12.846Z,-0.40
2019-01-04T08:31:43.317Z,-0.20
2019-01-04T08:34:14.166Z,0.40
2019-01-04T08:36:44.813Z,0.30
2019-01-04T08:39:15.254Z,0.60
2019-01-04T08:41:45.920Z,1.00
2019-01-04T08:44:17.625Z,1.00
2019-01-04T08:46:48.273Z,1.50
2019-01-04T08:49:18.570Z,1.20
2019-01-04T08:51:48.692Z,1.30
2019-01-04T08:54:17.811Z,1.80
2019-01-04T08:56:47.816Z,2.60
2019-01-04T08:59:18.130Z,3.20
2019-01-04T09:01:50.396Z,3.50
2019-01-04T09:04:21.664Z,3.80
2019-01-04T09:06:52.028Z,3.90
2019-01-04T09:09:23.129Z,4.10
2019-01-04T09:11:53.334Z,4.30
2019-01-04T09:14:22.152Z,4.50
2019-01-04T09:16:53.560Z,5.00
2019-01-04T09:19:23.137Z,5.10
2019-01-04T09:21:57.179Z,5.20
2019-01-04T09:24:29.354Z,5.20
2019-01-04T09:26:59.666Z,5.10
2019-01-04T09:29:30.686Z,5.20
2019-01-04T09:32:02.982Z,5.20
2019-01-04T09:34:34.266Z,5.00
2019-01-04T09:37:04.833Z,5.10
2019-01-04T09:39:34.815Z,5.50
2019-01-04T09:42:17.537Z,5.40
2019-01-04T09:44:47.781Z,5.60
2019-01-04T09:47:19.623Z,5.50
2019-01-04T09:49:50.390Z,5.50
2019-01-04T09:52:21.741Z,5.70
2019-01-04T09:54:51.318Z,5.40
2019-01-04T09:57:23.602Z,5.80
2019-01-04T09:59:55.314Z,6.00
2019-01-04T10:02:24.518Z,6.30
2019-01-04T10:04:54.200Z,6.30
2019-01-04T10:07:26.683Z,6.40
2019-01-04T10:09:57.511Z,6.10
2019-01-04T10:12:28.391Z,6.10
2019-01-04T10:14:59.602Z,6.70
2019-01-04T10:17:30.140Z,7.10
2019-01-04T10:20:01.019Z,7.20
2019-01-04T10:22:31.179Z,7.10
2019-01-04T10:25:01.313Z,6.60
2019-01-04T10:27:31.768Z,6.10
2019-01-04T10:30:02.697Z,6.50
2019-01-04T10:32:33.763Z,6.40
2019-01-04T10:35:10.318Z,6.60
2019-01-04T10:37:37.687Z,6.60
2019-01-04T10:40:11.114Z,6.80
2019-01-04T10:42:41.761Z,6.30
2019-01-04T10:45:12.625Z,6.00
2019-01-04T10:47:46.490Z,6.10
2019-01-04T10:50:16.108Z,5.90
2019-01-04T10:52:46.492Z,5.50
2019-01-04T10:55:16.280Z,5.90
2019-01-04T10:57:48.518Z,6.50
2019-01-04T11:00:18.742Z,6.70
2019-01-04T11:02:49.286Z,7.10
2019-01-04T11:05:18.343Z,7.20
2019-01-04T11:07:52.602Z,6.80
2019-01-04T11:10:23.495Z,6.00
2019-01-04T11:12:54.446Z,5.50
2019-01-04T11:15:24.712Z,5.60
2019-01-04T11:17:55.681Z,6.00
2019-01-04T11:20:50.721Z,6.20
2019-01-04T11:24:29.656Z,6.00
2019-01-04T11:27:30.647Z,6.10
2019-01-04T11:30:42.418Z,6.30
2019-01-04T11:33:36.792Z,6.60
2019-01-04T11:37:05.569Z,7.20
2019-01-04T11:40:31.768Z,6.90
2019-01-04T11:44:10.686Z,6.80
2019-01-04T11:47:20.462Z,5.70
2019-01-04T11:50:24.910Z,5.60
2019-01-04T11:53:04.385Z,6.70
2019-01-04T11:55:35.974Z,6.90
2019-01-04T11:58:07.737Z,7.10
2019-01-04T12:00:37.213Z,7.00
2019-01-04T12:03:07.058Z,7.00
2019-01-04T12:05:36.950Z,7.30
2019-01-04T12:08:08.242Z,7.50
2019-01-04T12:10:38.683Z,7.30
2019-01-04T12:13:08.715Z,7.50
2019-01-04T12:15:38.515Z,7.10
2019-01-04T12:18:08.150Z,7.30
2019-01-04T12:20:38.118Z,6.60
2019-01-04T12:23:11.266Z,5.90
2019-01-04T12:25:44.053Z,5.30
2019-01-04T12:28:15.672Z,4.80
2019-01-04T12:30:47.275Z,4.50
2019-01-04T12:33:22.428Z,4.30
2019-01-04T12:35:52.121Z,4.10
2019-01-04T12:38:21.538Z,4.10
2019-01-04T12:40:53.453Z,4.50
2019-01-04T12:43:23.793Z,5.60
2019-01-04T12:45:54.153Z,6.10
2019-01-04T12:48:25.347Z,5.80
2019-01-04T12:50:56.359Z,5.30
2019-01-04T12:53:27.643Z,4.80
2019-01-04T12:55:58.236Z,4.50
2019-01-04T12:58:29.513Z,4.50
2019-01-04T13:01:01.186Z,5.40
2019-01-04T13:03:30.553Z,6.50
2019-01-04T13:06:02.115Z,6.90
2019-01-04T13:08:32.551Z,6.00
2019-01-04T13:11:03.582Z,5.40
2019-01-04T13:13:33.362Z,5.60
2019-01-04T13:16:03.435Z,5.40
2019-01-04T13:18:33.642Z,5.40
2019-01-04T13:21:04.528Z,5.80
2019-01-04T13:23:35.965Z,6.30
2019-01-04T13:26:06.476Z,6.60
2019-01-04T13:28:37.812Z,7.20
2019-01-04T13:31:10.006Z,7.10
2019-01-04T13:33:41.564Z,6.40
2019-01-04T13:36:13.107Z,5.60
2019-01-04T13:38:44.457Z,5.50
2019-01-04T13:41:15.408Z,6.30
2019-01-04T13:43:46.540Z,6.50
2019-01-04T13:46:18.353Z,6.10
2019-01-04T13:48:48.413Z,6.30
2019-01-04T13:51:19.656Z,6.20
2019-01-04T13:53:49.868Z,5.90
2019-01-04T13:56:21.050Z,5.70
2019-01-04T13:58:51.709Z,5.70
2019-01-04T14:01:21.307Z,6.00
2019-01-04T14:03:51.378Z,5.70
2019-01-04T14:06:21.727Z,5.10
2019-01-04T14:08:51.978Z,5.10
2019-01-04T14:11:22.517Z,5.20
2019-01-04T14:13:53.072Z,5.10
2019-01-04T14:16:24.767Z,4.80
2019-01-04T14:18:55.898Z,4.60
2019-01-04T14:21:26.056Z,4.40
2019-01-04T14:23:56.525Z,4.10
2019-01-04T14:26:28.995Z,3.90
2019-01-04T14:28:59.226Z,3.80
2019-01-04T14:31:29.883Z,3.70
2019-01-04T14:34:01.524Z,3.60
2019-01-04T14:36:33.085Z,3.60
2019-01-04T14:39:05.957Z,3.50
2019-01-04T14:41:37.102Z,3.60
2019-01-04T14:44:07.671Z,3.60
2019-01-04T14:46:37.276Z,3.50
2019-01-04T14:49:10.678Z,3.50
2019-01-04T14:51:43.228Z,3.50
2019-01-04T14:54:13.330Z,3.50
2019-01-04T14:56:45.153Z,3.40
2019-01-04T14:59:17.770Z,3.30
2019-01-04T15:01:50.512Z,3.30
2019-01-04T15:04:20.100Z,3.20
2019-01-04T15:06:52.993Z,3.10
2019-01-04T15:09:30.071Z,3.10
2019-01-04T15:12:00.317Z,3.10
2019-01-04T15:14:30.990Z,3.00
2019-01-04T15:17:01.767Z,3.00
2019-01-04T15:19:34.464Z,3.00
2019-01-04T15:22:07.842Z,2.90
2019-01-04T15:24:38.432Z,2.80
2019-01-04T15:27:11.119Z,2.80
2019-01-04T15:29:42.246Z,2.70
2019-01-04T15:32:13.588Z,2.70
2019-01-04T15:34:44.707Z,2.70
2019-01-04T15:37:14.258Z,2.70
2019-01-04T15:39:43.902Z,2.60
2019-01-04T15:42:13.643Z,2.60
2019-01-04T15:44:45.428Z,2.50
2019-01-04T15:47:15.215Z,2.50
2019-01-04T15:49:47.108Z,2.40
2019-01-04T15:52:19.772Z,2.30
2019-01-04T15:54:50.439Z,2.30
2019-01-04T15:57:21.739Z,2.20
2019-01-04T15:59:53.598Z,2.20
2019-01-04T16:02:24.342Z,2.10
2019-01-04T16:04:55.050Z,2.00
2019-01-04T16:07:26.718Z,1.90
2019-01-04T16:09:58.228Z,1.90
2019-01-04T16:12:29.045Z,1.90
2019-01-04T16:15:00.465Z,1.70
2019-01-04T16:17:31.527Z,1.50
2019-01-04T16:20:02.233Z,1.30
2019-01-04T16:22:32.904Z,1.00
2019-01-04T16:25:09.520Z,0.90
2019-01-04T16:27:41.800Z,0.70
2019-01-04T16:30:16.164Z,0.60
2019-01-04T16:32:46.670Z,0.50
2019-01-04T16:35:16.856Z,0.50
2019-01-04T16:37:47.058Z,0.60
2019-01-04T16:40:18.076Z,0.80
2019-01-04T16:42:48.872Z,0.90
2019-01-04T16:45:18.061Z,1.00
2019-01-04T16:47:50.506Z,1.20
2019-01-04T16:50:21.711Z,1.20
2019-01-04T16:52:51.894Z,1.20
2019-01-04T16:55:21.923Z,1.10
2019-01-04T16:57:51.314Z,1.30
2019-01-04T17:00:24.337Z,1.30
2019-01-04T17:02:54.597Z,1.20
2019-01-04T17:05:26.985Z,1.20
2019-01-04T17:07:57.760Z,1.20
2019-01-04T17:10:30.590Z,1.10
2019-01-04T17:13:01.590Z,1.00
2019-01-04T17:15:32.838Z,1.10
2019-01-04T17:18:04.328Z,1.10
2019-01-04T17:20:35.525Z,0.80
2019-01-04T17:23:06.069Z,1.10
2019-01-04T17:25:38.323Z,1.10
2019-01-04T17:28:10.251Z,0.90
2019-01-04T17:30:40.361Z,0.60
2019-01-04T17:33:10.200Z,0.40
2019-01-04T17:35:40.333Z,0.30
2019-01-04T17:38:11.560Z,0.20
2019-01-04T17:40:43.824Z,0.30
2019-01-04T17:43:13.753Z,0.30
2019-01-04T17:45:45.854Z,0.30
2019-01-04T17:48:16.490Z,0.70
2019-01-04T17:50:47.658Z,0.80
2019-01-04T17:53:18.220Z,0.60
2019-01-04T17:55:49.331Z,0.50
2019-01-04T17:58:19.960Z,0.20
2019-01-04T18:00:50.759Z,-0.30
2019-01-04T18:03:22.039Z,-0.60
2019-01-04T18:05:55.466Z,-0.80
2019-01-04T18:08:25.301Z,-0.80
2019-01-04T18:10:57.801Z,-0.50
2019-01-04T18:13:28.466Z,-0.80
2019-01-04T18:15:59.480Z,-0.90
2019-01-04T18:18:33.385Z,-1.30
2019-01-04T18:21:04.639Z,-1.40
2019-01-04T18:23:37.139Z,-1.70
2019-01-04T18:26:08.042Z,-1.50
2019-01-04T18:28:39.138Z,-1.00
2019-01-04T18:31:12.537Z,-1.20
2019-01-04T18:33:44.249Z,-1.00
2019-01-04T18:36:15.423Z,-0.70
2019-01-04T18:38:48.752Z,-1.00
2019-01-04T18:41:22.607Z,-1.10
2019-01-04T18:43:53.453Z,-0.90
2019-01-04T18:46:24.874Z,-1.10
2019-01-04T18:48:56.011Z,-1.60
2019-01-04T18:51:26.784Z,-1.90
2019-01-04T18:53:57.398Z,-2.00
2019-01-04T18:56:28.169Z,-2.20
2019-01-04T18:58:58.749Z,-2.30
2019-01-04T19:01:32.403Z,-2.40
2019-01-04T19:04:03.341Z,-2.50
2019-01-04T19:06:33.257Z,-2.50
2019-01-04T19:09:03.806Z,-2.60
2019-01-04T19:11:36.050Z,-2.70
2019-01-04T19:14:07.590Z,-2.90
2019-01-04T19:16:38.282Z,-3.00
2019-01-04T19:19:08.770Z,-3.10
2019-01-04T19:21:39.090Z,-3.20
2019-01-04T19:24:11.817Z,-3.00
2019-01-04T19:26:41.646Z,-3.10
2019-01-04T19:29:14.949Z,-3.10
2019-01-04T19:31:46.332Z,-3.10
2019-01-04T19:34:18.676Z,-3.20
2019-01-04T19:36:49.937Z,-3.10
2019-01-04T19:39:19.677Z,-3.10
2019-01-04T19:41:51.704Z,-3.00
2019-01-04T19:44:22.567Z,-3.10
2019-01-04T19:46:54.809Z,-3.20
2019-01-04T19:49:28.321Z,-3.30
2019-01-04T19:51:58.416Z,-3.30
2019-01-04T19:54:28.501Z,-3.20
2019-01-04T19:57:00.516Z,-3.30
2019-01-04T19:59:31.734Z,-3.30
2019-01-04T20:02:01.994Z,-3.30
2019-01-04T20:04:35.154Z,-3.40
2019-01-04T20:08:21.324Z,-3.10
2019-01-04T20:12:17.229Z,-3.10
2019-01-04T20:15:59.177Z,-3.40
2019-01-04T20:18:51.478Z,-3.60
2019-01-04T20:21:45.401Z,-3.70
2019-01-04T20:24:36.227Z,-3.80
2019-01-04T20:27:33.806Z,-4.00
2019-01-04T20:30:39.679Z,-4.20
2019-01-04T20:33:34.954Z,-4.20
2019-01-04T20:36:28.639Z,-4.20
2019-01-04T20:39:24.627Z,-4.20
2019-01-04T20:42:14.966Z,-4.20
2019-01-04T20:45:09.237Z,-4.30
2019-01-04T20:48:09.877Z,-4.20
2019-01-04T20:51:07.824Z,-4.10
2019-01-04T20:54:10.541Z,-4.10
2019-01-04T20:57:18.678Z,-4.10
2019-01-04T21:00:07.654Z,-4.20
2019-01-04T21:03:05.094Z,-4.20
2019-01-04T21:06:00.809Z,-4.20
2019-01-04T21:08:52.075Z,-4.30
2019-01-04T21:11:37.177Z,-4.20
2019-01-04T21:14:48.239Z,-4.30
2019-01-04T21:17:53.676Z,-4.30
2019-01-04T21:20:44.582Z,-4.30
2019-01-04T21:23:40.714Z,-4.30
2019-01-04T21:26:31.021Z,-4.30
2019-01-04T21:29:21.793Z,-4.40
2019-01-04T21:32:17.856Z,-4.50
2019-01-04T21:35:05.730Z,-4.50
2019-01-04T21:38:13.737Z,-4.40
2019-01-04T21:41:00.418Z,-4.40
2019-01-04T21:44:03.197Z,-4.40
2019-01-04T21:46:54.553Z,-4.60
2019-01-04T21:49:52.759Z,-4.40
2019-01-04T21:52:47.672Z,-4.50
2019-01-04T21:55:36.009Z,-4.20
2019-01-04T21:58:35.680Z,-4.20
2019-01-04T22:01:30.110Z,-4.30
2019-01-04T22:04:33.223Z,-4.20
2019-01-04T22:07:22.395Z,-4.30
2019-01-04T22:10:11.871Z,-4.50
2019-01-04T22:13:17.997Z,-4.70
2019-01-04T22:16:05.451Z,-4.90
2019-01-04T22:18:58.476Z,-5.00
2019-01-04T22:22:05.731Z,-5.10
2019-01-04T22:24:59.303Z,-5.10
2019-01-04T22:27:49.052Z,-4.90
2019-01-04T22:30:37.619Z,-5.10
2019-01-04T22:33:30.104Z,-5.20
2019-01-04T22:36:34.114Z,-5.10
2019-01-04T22:39:38.746Z,-5.00
2019-01-04T22:42:34.753Z,-5.10
2019-01-04T22:45:38.214Z,-4.80
2019-01-04T22:48:40.399Z,-4.70
2019-01-04T22:51:39.770Z,-4.80
2019-01-04T22:54:34.314Z,-4.90
2019-01-04T22:57:23.054Z,-4.70
2019-01-04T23:00:30.251Z,-4.60
2019-01-04T23:03:19.625Z,-4.70
2019-01-04T23:06:02.946Z,-4.70
2019-01-04T23:09:05.113Z,-4.70
2019-01-04T23:11:53.891Z,-4.70
2019-01-04T23:15:04.373Z,-4.70
2019-01-04T23:17:52.926Z,-4.70
2019-01-04T23:20:51.369Z,-4.60
2019-01-04T23:23:29.608Z,-4.50
2019-01-04T23:26:26.996Z,-4.40
2019-01-04T23:29:15.763Z,-4.30
2019-01-04T23:32:17.375Z,-4.20
2019-01-04T23:35:13.263Z,-4.10
2019-01-04T23:38:12.016Z,-4.10
2019-01-04T23:41:13.716Z,-4.10
2019-01-04T23:44:03.840Z,-4.10
2019-01-04T23:46:52.523Z,-4.10
2019-01-04T23:49:50.708Z,-4.20
2019-01-04T23:52:40.553Z,-4.30
2019-01-04T23:55:35.721Z,-4.50
2019-01-04T23:58:25.611Z,-4.50
